sensor_id;sensor_type;location;lat;lon;timestamp;temperature;humidity
55648;DHT22;45266;48.756;9.246;2022-12-29T00:00:08;3.60;99.90
55648;DHT22;45266;48.756;9.246;2022-12-29T00:01:10;3.60;99.90
55648;DHT22;45266;48.756;9.246;2022-12-29T00:02:12;3.60;99.90
55648;DHT22;45266;48.756;9.246;2022-12-29T00:03:14;3.60;99.90
55648;DHT22;45266;48.756;9.246;2022-12-29T00:04:18;3.70;99.90
55648;DHT22;45266;48.756;9.246;2022-12-29T00:05:20;3.70;99.90
55648;DHT22;45266;48.756;9.246;2022-12-29T00:06:22;3.60;99.90
55648;DHT22;45266;48.756;9.246;2022-12-29T00:07:24;3.70;99.90
55648;DHT22;45266;48.756;9.246;2022-12-29T00:08:25;3.70;99.90
55648;DHT22;45266;48.756;9.246;2022-12-29T00:09:42;3.70;99.90
55648;DHT22;45266;48.756;9.246;2022-12-29T00:10:44;3.70;99.90
55648;DHT22;45266;48.756;9.246;2022-12-29T00:11:46;3.70;99.90
55648;DHT22;45266;48.756;9.246;2022-12-29T00:12:48;3.70;99.90
55648;DHT22;45266;48.756;9.246;2022-12-29T00:14:09;3.70;99.90
55648;DHT22;45266;48.756;9.246;2022-12-29T00:15:30;3.80;99.90
55648;DHT22;45266;48.756;9.246;2022-12-29T00:16:41;3.80;99.90
55648;DHT22;45266;48.756;9.246;2022-12-29T00:17:43;3.80;99.90
55648;DHT22;45266;48.756;9.246;2022-12-29T00:18:44;3.80;99.90
55648;DHT22;45266;48.756;9.246;2022-12-29T00:19:46;3.80;99.90
55648;DHT22;45266;48.756;9.246;2022-12-29T00:21:15;3.80;99.90
55648;DHT22;45266;48.756;9.246;2022-12-29T00:22:35;3.90;99.90
55648;DHT22;45266;48.756;9.246;2022-12-29T00:23:56;3.90;99.90
55648;DHT22;45266;48.756;9.246;2022-12-29T00:25:16;3.90;99.90
55648;DHT22;45266;48.756;9.246;2022-12-29T00:26:37;4.00;99.90
55648;DHT22;45266;48.756;9.246;2022-12-29T00:27:58;4.00;99.90
55648;DHT22;45266;48.756;9.246;2022-12-29T00:29:18;4.00;99.90
55648;DHT22;45266;48.756;9.246;2022-12-29T00:30:38;4.00;99.90
55648;DHT22;45266;48.756;9.246;2022-12-29T00:31:59;4.00;99.90
55648;DHT22;45266;48.756;9.246;2022-12-29T00:33:20;4.00;99.90
55648;DHT22;45266;48.756;9.246;2022-12-29T00:34:41;4.00;99.90
55648;DHT22;45266;48.756;9.246;2022-12-29T00:36:08;4.10;99.90
55648;DHT22;45266;48.756;9.246;2022-12-29T00:37:10;4.00;99.90
55648;DHT22;45266;48.756;9.246;2022-12-29T00:38:13;4.00;99.90
55648;DHT22;45266;48.756;9.246;2022-12-29T00:39:34;4.00;99.90
55648;DHT22;45266;48.756;9.246;2022-12-29T00:40:54;4.00;99.90
55648;DHT22;45266;48.756;9.246;2022-12-29T00:42:15;4.00;99.90
55648;DHT22;45266;48.756;9.246;2022-12-29T00:43:40;4.00;99.90
55648;DHT22;45266;48.756;9.246;2022-12-29T00:45:00;4.00;99.90
55648;DHT22;45266;48.756;9.246;2022-12-29T00:46:02;4.00;99.90
55648;DHT22;45266;48.756;9.246;2022-12-29T00:47:04;4.00;99.90
55648;DHT22;45266;48.756;9.246;2022-12-29T00:48:06;4.10;99.90
55648;DHT22;45266;48.756;9.246;2022-12-29T00:49:10;4.00;99.90
55648;DHT22;45266;48.756;9.246;2022-12-29T00:50:30;4.10;99.90
55648;DHT22;45266;48.756;9.246;2022-12-29T00:51:32;4.10;99.90
55648;DHT22;45266;48.756;9.246;2022-12-29T00:52:34;4.10;99.90
55648;DHT22;45266;48.756;9.246;2022-12-29T00:53:36;4.10;99.90
55648;DHT22;45266;48.756;9.246;2022-12-29T00:54:39;4.10;99.90
55648;DHT22;45266;48.756;9.246;2022-12-29T00:55:42;4.10;99.90
55648;DHT22;45266;48.756;9.246;2022-12-29T00:56:46;4.10;99.90
55648;DHT22;45266;48.756;9.246;2022-12-29T00:57:49;4.20;99.90
55648;DHT22;45266;48.756;9.246;2022-12-29T00:58:50;4.10;99.90
55648;DHT22;45266;48.756;9.246;2022-12-29T00:59:52;4.20;99.90
55648;DHT22;45266;48.756;9.246;2022-12-29T01:01:04;4.20;99.90
55648;DHT22;45266;48.756;9.246;2022-12-29T01:02:08;4.20;99.90
55648;DHT22;45266;48.756;9.246;2022-12-29T01:03:11;4.20;99.90
55648;DHT22;45266;48.756;9.246;2022-12-29T01:04:13;4.20;99.90
55648;DHT22;45266;48.756;9.246;2022-12-29T01:05:15;4.20;99.90
55648;DHT22;45266;48.756;9.246;2022-12-29T01:06:18;4.10;99.90
55648;DHT22;45266;48.756;9.246;2022-12-29T01:07:20;4.10;99.90
55648;DHT22;45266;48.756;9.246;2022-12-29T01:08:22;4.10;99.90
55648;DHT22;45266;48.756;9.246;2022-12-29T01:09:24;4.10;99.90
55648;DHT22;45266;48.756;9.246;2022-12-29T01:10:44;4.10;99.90
55648;DHT22;45266;48.756;9.246;2022-12-29T01:11:46;4.10;99.90
55648;DHT22;45266;48.756;9.246;2022-12-29T01:12:47;4.10;99.90
55648;DHT22;45266;48.756;9.246;2022-12-29T01:13:51;4.10;99.90
55648;DHT22;45266;48.756;9.246;2022-12-29T01:14:53;4.10;99.90
55648;DHT22;45266;48.756;9.246;2022-12-29T01:15:55;4.10;99.90
55648;DHT22;45266;48.756;9.246;2022-12-29T01:16:57;4.10;99.90
55648;DHT22;45266;48.756;9.246;2022-12-29T01:17:59;4.10;99.90
55648;DHT22;45266;48.756;9.246;2022-12-29T01:19:01;4.10;99.90
55648;DHT22;45266;48.756;9.246;2022-12-29T01:20:03;4.10;99.90
55648;DHT22;45266;48.756;9.246;2022-12-29T01:21:06;4.10;99.90
55648;DHT22;45266;48.756;9.246;2022-12-29T01:22:07;4.10;99.90
55648;DHT22;45266;48.756;9.246;2022-12-29T01:23:09;4.10;99.90
55648;DHT22;45266;48.756;9.246;2022-12-29T01:24:11;4.10;99.90
55648;DHT22;45266;48.756;9.246;2022-12-29T01:25:13;4.20;99.90
55648;DHT22;45266;48.756;9.246;2022-12-29T01:26:15;4.20;99.90
55648;DHT22;45266;48.756;9.246;2022-12-29T01:27:18;4.20;99.90
55648;DHT22;45266;48.756;9.246;2022-12-29T01:28:20;4.20;99.90
55648;DHT22;45266;48.756;9.246;2022-12-29T01:29:26;4.20;99.90
55648;DHT22;45266;48.756;9.246;2022-12-29T01:30:28;4.20;99.90
55648;DHT22;45266;48.756;9.246;2022-12-29T01:31:30;4.20;99.90
55648;DHT22;45266;48.756;9.246;2022-12-29T01:32:32;4.20;99.90
55648;DHT22;45266;48.756;9.246;2022-12-29T01:33:33;4.20;99.90
55648;DHT22;45266;48.756;9.246;2022-12-29T01:34:35;4.20;99.90
55648;DHT22;45266;48.756;9.246;2022-12-29T01:35:37;4.20;99.90
55648;DHT22;45266;48.756;9.246;2022-12-29T01:36:39;4.20;99.90
55648;DHT22;45266;48.756;9.246;2022-12-29T01:37:40;4.20;99.90
55648;DHT22;45266;48.756;9.246;2022-12-29T01:38:43;4.30;99.90
55648;DHT22;45266;48.756;9.246;2022-12-29T01:39:45;4.30;99.90
55648;DHT22;45266;48.756;9.246;2022-12-29T01:40:47;4.30;99.90
55648;DHT22;45266;48.756;9.246;2022-12-29T01:41:49;4.30;99.90
55648;DHT22;45266;48.756;9.246;2022-12-29T01:42:51;4.30;99.90
55648;DHT22;45266;48.756;9.246;2022-12-29T01:43:58;4.30;99.90
55648;DHT22;45266;48.756;9.246;2022-12-29T01:45:10;4.30;99.90
55648;DHT22;45266;48.756;9.246;2022-12-29T01:46:31;4.30;99.90
55648;DHT22;45266;48.756;9.246;2022-12-29T01:47:36;4.30;99.90
55648;DHT22;45266;48.756;9.246;2022-12-29T01:48:40;4.30;99.90
55648;DHT22;45266;48.756;9.246;2022-12-29T01:49:42;4.30;99.90
55648;DHT22;45266;48.756;9.246;2022-12-29T01:50:52;4.30;99.90
55648;DHT22;45266;48.756;9.246;2022-12-29T01:51:58;4.40;99.90
55648;DHT22;45266;48.756;9.246;2022-12-29T01:53:27;4.40;99.90
55648;DHT22;45266;48.756;9.246;2022-12-29T01:54:45;4.40;99.90
55648;DHT22;45266;48.756;9.246;2022-12-29T01:55:52;4.40;99.90
55648;DHT22;45266;48.756;9.246;2022-12-29T01:56:57;4.40;99.90
55648;DHT22;45266;48.756;9.246;2022-12-29T01:58:03;4.40;99.90
55648;DHT22;45266;48.756;9.246;2022-12-29T01:59:19;4.40;99.90
55648;DHT22;45266;48.756;9.246;2022-12-29T02:00:23;4.40;99.90
55648;DHT22;45266;48.756;9.246;2022-12-29T02:01:25;4.40;99.90
55648;DHT22;45266;48.756;9.246;2022-12-29T02:02:27;4.40;99.90
55648;DHT22;45266;48.756;9.246;2022-12-29T02:03:34;4.50;99.90
55648;DHT22;45266;48.756;9.246;2022-12-29T02:04:40;4.50;99.90
55648;DHT22;45266;48.756;9.246;2022-12-29T02:07:09;4.50;99.90
55648;DHT22;45266;48.756;9.246;2022-12-29T02:08:13;4.50;99.90
55648;DHT22;45266;48.756;9.246;2022-12-29T02:09:15;4.50;99.90
55648;DHT22;45266;48.756;9.246;2022-12-29T02:10:23;4.50;99.90
55648;DHT22;45266;48.756;9.246;2022-12-29T02:11:28;4.50;99.90
55648;DHT22;45266;48.756;9.246;2022-12-29T02:12:31;4.60;99.90
55648;DHT22;45266;48.756;9.246;2022-12-29T02:13:33;4.60;99.90
55648;DHT22;45266;48.756;9.246;2022-12-29T02:14:35;4.60;99.90
55648;DHT22;45266;48.756;9.246;2022-12-29T02:30:03;4.60;99.90
55648;DHT22;45266;48.756;9.246;2022-12-29T02:32:45;4.60;99.90
55648;DHT22;45266;48.756;9.246;2022-12-29T02:35:23;4.60;99.90
55648;DHT22;45266;48.756;9.246;2022-12-29T02:36:46;4.60;99.90
55648;DHT22;45266;48.756;9.246;2022-12-29T02:39:43;4.70;99.90
55648;DHT22;45266;48.756;9.246;2022-12-29T02:40:58;4.70;99.90
55648;DHT22;45266;48.756;9.246;2022-12-29T02:42:36;4.70;99.90
55648;DHT22;45266;48.756;9.246;2022-12-29T02:45:12;4.70;99.90
55648;DHT22;45266;48.756;9.246;2022-12-29T02:46:47;4.70;99.90
55648;DHT22;45266;48.756;9.246;2022-12-29T02:48:28;4.70;99.90
55648;DHT22;45266;48.756;9.246;2022-12-29T02:49:39;4.70;99.90
55648;DHT22;45266;48.756;9.246;2022-12-29T02:52:16;4.80;99.90
55648;DHT22;45266;48.756;9.246;2022-12-29T02:53:19;4.80;99.90
55648;DHT22;45266;48.756;9.246;2022-12-29T02:54:42;4.80;99.90
55648;DHT22;45266;48.756;9.246;2022-12-29T02:55:48;4.80;99.90
55648;DHT22;45266;48.756;9.246;2022-12-29T02:56:50;4.80;99.90
55648;DHT22;45266;48.756;9.246;2022-12-29T02:59:16;4.80;99.90
55648;DHT22;45266;48.756;9.246;2022-12-29T03:00:18;4.80;99.90
55648;DHT22;45266;48.756;9.246;2022-12-29T03:02:30;4.80;99.90
55648;DHT22;45266;48.756;9.246;2022-12-29T03:04:00;4.80;99.90
55648;DHT22;45266;48.756;9.246;2022-12-29T03:08:31;4.90;99.90
55648;DHT22;45266;48.756;9.246;2022-12-29T03:14:27;4.90;99.90
55648;DHT22;45266;48.756;9.246;2022-12-29T03:17:33;4.90;99.90
55648;DHT22;45266;48.756;9.246;2022-12-29T03:19:47;4.80;99.90
55648;DHT22;45266;48.756;9.246;2022-12-29T03:22:15;4.80;99.90
55648;DHT22;45266;48.756;9.246;2022-12-29T03:23:30;4.80;99.90
55648;DHT22;45266;48.756;9.246;2022-12-29T03:24:37;4.80;99.90
55648;DHT22;45266;48.756;9.246;2022-12-29T03:25:44;4.80;99.90
55648;DHT22;45266;48.756;9.246;2022-12-29T03:26:47;4.80;99.90
55648;DHT22;45266;48.756;9.246;2022-12-29T03:27:54;4.80;99.90
55648;DHT22;45266;48.756;9.246;2022-12-29T03:28:56;4.80;99.90
55648;DHT22;45266;48.756;9.246;2022-12-29T03:30:03;4.80;99.90
55648;DHT22;45266;48.756;9.246;2022-12-29T03:31:08;4.80;99.90
55648;DHT22;45266;48.756;9.246;2022-12-29T03:32:11;4.80;99.90
55648;DHT22;45266;48.756;9.246;2022-12-29T03:33:17;4.80;99.90
55648;DHT22;45266;48.756;9.246;2022-12-29T03:34:21;4.80;99.90
55648;DHT22;45266;48.756;9.246;2022-12-29T03:35:25;4.80;99.90
55648;DHT22;45266;48.756;9.246;2022-12-29T03:36:39;4.80;99.90
55648;DHT22;45266;48.756;9.246;2022-12-29T03:37:51;4.80;99.90
55648;DHT22;45266;48.756;9.246;2022-12-29T03:39:01;4.80;99.90
55648;DHT22;45266;48.756;9.246;2022-12-29T03:40:04;4.80;99.90
55648;DHT22;45266;48.756;9.246;2022-12-29T03:41:09;4.80;99.90
55648;DHT22;45266;48.756;9.246;2022-12-29T03:42:19;4.80;99.90
55648;DHT22;45266;48.756;9.246;2022-12-29T03:43:23;4.80;99.90
55648;DHT22;45266;48.756;9.246;2022-12-29T03:44:33;4.80;99.90
55648;DHT22;45266;48.756;9.246;2022-12-29T03:45:36;4.80;99.90
55648;DHT22;45266;48.756;9.246;2022-12-29T03:46:38;4.90;99.90
55648;DHT22;45266;48.756;9.246;2022-12-29T03:47:40;4.80;99.90
55648;DHT22;45266;48.756;9.246;2022-12-29T03:48:42;4.80;99.90
55648;DHT22;45266;48.756;9.246;2022-12-29T03:49:43;4.80;99.90
55648;DHT22;45266;48.756;9.246;2022-12-29T03:50:45;4.80;99.90
55648;DHT22;45266;48.756;9.246;2022-12-29T03:51:47;4.80;99.90
55648;DHT22;45266;48.756;9.246;2022-12-29T03:52:52;4.80;99.90
55648;DHT22;45266;48.756;9.246;2022-12-29T03:53:54;4.80;99.90
55648;DHT22;45266;48.756;9.246;2022-12-29T03:54:56;4.80;99.90
55648;DHT22;45266;48.756;9.246;2022-12-29T03:55:57;4.80;99.90
55648;DHT22;45266;48.756;9.246;2022-12-29T03:56:59;4.80;99.90
55648;DHT22;45266;48.756;9.246;2022-12-29T03:58:01;4.80;99.90
55648;DHT22;45266;48.756;9.246;2022-12-29T03:59:03;4.80;99.90
55648;DHT22;45266;48.756;9.246;2022-12-29T04:00:05;4.70;99.90
55648;DHT22;45266;48.756;9.246;2022-12-29T04:01:08;4.80;99.90
55648;DHT22;45266;48.756;9.246;2022-12-29T04:02:10;4.80;99.90
55648;DHT22;45266;48.756;9.246;2022-12-29T04:03:12;4.80;99.90
55648;DHT22;45266;48.756;9.246;2022-12-29T04:04:13;4.80;99.90
55648;DHT22;45266;48.756;9.246;2022-12-29T04:05:15;4.80;99.90
55648;DHT22;45266;48.756;9.246;2022-12-29T04:06:17;4.80;99.90
55648;DHT22;45266;48.756;9.246;2022-12-29T04:07:19;4.80;99.90
55648;DHT22;45266;48.756;9.246;2022-12-29T04:08:20;4.80;99.90
55648;DHT22;45266;48.756;9.246;2022-12-29T04:09:22;4.80;99.90
55648;DHT22;45266;48.756;9.246;2022-12-29T04:10:24;4.80;99.90
55648;DHT22;45266;48.756;9.246;2022-12-29T04:11:26;4.70;99.90
55648;DHT22;45266;48.756;9.246;2022-12-29T04:12:33;4.70;99.90
55648;DHT22;45266;48.756;9.246;2022-12-29T04:13:35;4.70;99.90
55648;DHT22;45266;48.756;9.246;2022-12-29T04:14:37;4.70;99.90
55648;DHT22;45266;48.756;9.246;2022-12-29T04:15:39;4.70;99.90
55648;DHT22;45266;48.756;9.246;2022-12-29T04:16:40;4.70;99.90
55648;DHT22;45266;48.756;9.246;2022-12-29T04:17:42;4.70;99.90
55648;DHT22;45266;48.756;9.246;2022-12-29T04:18:44;4.70;99.90
55648;DHT22;45266;48.756;9.246;2022-12-29T04:19:46;4.70;99.90
55648;DHT22;45266;48.756;9.246;2022-12-29T04:20:47;4.60;99.90
55648;DHT22;45266;48.756;9.246;2022-12-29T04:22:01;4.60;99.90
55648;DHT22;45266;48.756;9.246;2022-12-29T04:23:04;4.60;99.90
55648;DHT22;45266;48.756;9.246;2022-12-29T04:24:06;4.60;99.90
55648;DHT22;45266;48.756;9.246;2022-12-29T04:25:08;4.60;99.90
55648;DHT22;45266;48.756;9.246;2022-12-29T04:26:10;4.50;99.90
55648;DHT22;45266;48.756;9.246;2022-12-29T04:27:12;4.60;99.90
55648;DHT22;45266;48.756;9.246;2022-12-29T04:28:15;4.50;99.90
55648;DHT22;45266;48.756;9.246;2022-12-29T04:29:19;4.50;99.90
55648;DHT22;45266;48.756;9.246;2022-12-29T04:30:21;4.50;99.90
55648;DHT22;45266;48.756;9.246;2022-12-29T04:31:22;4.50;99.90
55648;DHT22;45266;48.756;9.246;2022-12-29T04:32:24;4.50;99.90
55648;DHT22;45266;48.756;9.246;2022-12-29T04:33:26;4.50;99.90
55648;DHT22;45266;48.756;9.246;2022-12-29T04:34:28;4.50;99.90
55648;DHT22;45266;48.756;9.246;2022-12-29T04:35:30;4.50;99.90
55648;DHT22;45266;48.756;9.246;2022-12-29T04:36:32;4.50;99.90
55648;DHT22;45266;48.756;9.246;2022-12-29T04:37:33;4.40;99.90
55648;DHT22;45266;48.756;9.246;2022-12-29T04:38:35;4.40;99.90
55648;DHT22;45266;48.756;9.246;2022-12-29T04:39:37;4.40;99.90
55648;DHT22;45266;48.756;9.246;2022-12-29T04:40:40;4.40;99.90
55648;DHT22;45266;48.756;9.246;2022-12-29T04:41:42;4.40;99.90
55648;DHT22;45266;48.756;9.246;2022-12-29T04:42:44;4.40;99.90
55648;DHT22;45266;48.756;9.246;2022-12-29T04:43:46;4.40;99.90
55648;DHT22;45266;48.756;9.246;2022-12-29T04:44:47;4.40;99.90
55648;DHT22;45266;48.756;9.246;2022-12-29T04:45:49;4.40;99.90
55648;DHT22;45266;48.756;9.246;2022-12-29T04:46:51;4.50;99.90
55648;DHT22;45266;48.756;9.246;2022-12-29T04:47:53;4.50;99.90
55648;DHT22;45266;48.756;9.246;2022-12-29T04:48:54;4.50;99.90
55648;DHT22;45266;48.756;9.246;2022-12-29T04:49:56;4.50;99.90
55648;DHT22;45266;48.756;9.246;2022-12-29T04:50:58;4.50;99.90
55648;DHT22;45266;48.756;9.246;2022-12-29T04:52:00;4.60;99.90
55648;DHT22;45266;48.756;9.246;2022-12-29T04:53:02;4.50;99.90
55648;DHT22;45266;48.756;9.246;2022-12-29T04:54:04;4.50;99.90
55648;DHT22;45266;48.756;9.246;2022-12-29T04:55:06;4.50;99.90
55648;DHT22;45266;48.756;9.246;2022-12-29T04:56:08;4.50;99.90
55648;DHT22;45266;48.756;9.246;2022-12-29T04:57:10;4.50;99.90
55648;DHT22;45266;48.756;9.246;2022-12-29T04:58:12;4.50;99.90
55648;DHT22;45266;48.756;9.246;2022-12-29T04:59:22;4.50;99.90
55648;DHT22;45266;48.756;9.246;2022-12-29T05:00:24;4.50;99.90
55648;DHT22;45266;48.756;9.246;2022-12-29T05:01:26;4.50;99.90
55648;DHT22;45266;48.756;9.246;2022-12-29T05:02:28;4.50;99.90
55648;DHT22;45266;48.756;9.246;2022-12-29T05:03:30;4.50;99.90
55648;DHT22;45266;48.756;9.246;2022-12-29T05:04:32;4.50;99.90
55648;DHT22;45266;48.756;9.246;2022-12-29T05:05:34;4.50;99.90
55648;DHT22;45266;48.756;9.246;2022-12-29T05:06:36;4.50;99.90
55648;DHT22;45266;48.756;9.246;2022-12-29T05:07:38;4.50;99.90
55648;DHT22;45266;48.756;9.246;2022-12-29T05:08:39;4.50;99.90
55648;DHT22;45266;48.756;9.246;2022-12-29T05:09:41;4.50;99.90
55648;DHT22;45266;48.756;9.246;2022-12-29T05:10:45;4.50;99.90
55648;DHT22;45266;48.756;9.246;2022-12-29T05:11:47;4.50;99.90
55648;DHT22;45266;48.756;9.246;2022-12-29T05:12:48;4.50;99.90
55648;DHT22;45266;48.756;9.246;2022-12-29T05:13:50;4.50;99.90
55648;DHT22;45266;48.756;9.246;2022-12-29T05:14:52;4.40;99.90
55648;DHT22;45266;48.756;9.246;2022-12-29T05:15:54;4.40;99.90
55648;DHT22;45266;48.756;9.246;2022-12-29T05:16:55;4.40;99.90
55648;DHT22;45266;48.756;9.246;2022-12-29T05:17:57;4.40;99.90
55648;DHT22;45266;48.756;9.246;2022-12-29T05:18:59;4.40;99.90
55648;DHT22;45266;48.756;9.246;2022-12-29T05:20:01;4.40;99.90
55648;DHT22;45266;48.756;9.246;2022-12-29T05:21:02;4.40;99.90
55648;DHT22;45266;48.756;9.246;2022-12-29T05:22:04;4.40;99.90
55648;DHT22;45266;48.756;9.246;2022-12-29T05:23:06;4.40;99.90
55648;DHT22;45266;48.756;9.246;2022-12-29T05:24:08;4.40;99.90
55648;DHT22;45266;48.756;9.246;2022-12-29T05:25:10;4.40;99.90
55648;DHT22;45266;48.756;9.246;2022-12-29T05:26:12;4.40;99.90
55648;DHT22;45266;48.756;9.246;2022-12-29T05:27:15;4.30;99.90
55648;DHT22;45266;48.756;9.246;2022-12-29T05:28:17;4.30;99.90
55648;DHT22;45266;48.756;9.246;2022-12-29T05:29:19;4.30;99.90
55648;DHT22;45266;48.756;9.246;2022-12-29T05:30:21;4.30;99.90
55648;DHT22;45266;48.756;9.246;2022-12-29T05:31:23;4.30;99.90
55648;DHT22;45266;48.756;9.246;2022-12-29T05:32:25;4.30;99.90
55648;DHT22;45266;48.756;9.246;2022-12-29T05:33:26;4.30;99.90
55648;DHT22;45266;48.756;9.246;2022-12-29T05:34:28;4.30;99.90
55648;DHT22;45266;48.756;9.246;2022-12-29T05:35:30;4.30;99.90
55648;DHT22;45266;48.756;9.246;2022-12-29T05:36:33;4.30;99.90
55648;DHT22;45266;48.756;9.246;2022-12-29T05:37:38;4.30;99.90
55648;DHT22;45266;48.756;9.246;2022-12-29T05:38:40;4.30;99.90
55648;DHT22;45266;48.756;9.246;2022-12-29T05:39:42;4.30;99.90
55648;DHT22;45266;48.756;9.246;2022-12-29T05:40:44;4.30;99.90
55648;DHT22;45266;48.756;9.246;2022-12-29T05:41:46;4.30;99.90
55648;DHT22;45266;48.756;9.246;2022-12-29T05:42:47;4.30;99.90
55648;DHT22;45266;48.756;9.246;2022-12-29T05:43:49;4.30;99.90
55648;DHT22;45266;48.756;9.246;2022-12-29T05:44:51;4.30;99.90
55648;DHT22;45266;48.756;9.246;2022-12-29T05:45:55;4.30;99.90
55648;DHT22;45266;48.756;9.246;2022-12-29T05:46:58;4.40;99.90
55648;DHT22;45266;48.756;9.246;2022-12-29T05:47:59;4.40;99.90
55648;DHT22;45266;48.756;9.246;2022-12-29T05:49:01;4.40;99.90
55648;DHT22;45266;48.756;9.246;2022-12-29T05:50:03;4.40;99.90
55648;DHT22;45266;48.756;9.246;2022-12-29T05:51:05;4.40;99.90
55648;DHT22;45266;48.756;9.246;2022-12-29T05:52:08;4.40;99.90
55648;DHT22;45266;48.756;9.246;2022-12-29T05:53:09;4.40;99.90
55648;DHT22;45266;48.756;9.246;2022-12-29T05:54:11;4.40;99.90
55648;DHT22;45266;48.756;9.246;2022-12-29T05:55:13;4.40;99.90
55648;DHT22;45266;48.756;9.246;2022-12-29T05:56:15;4.40;99.90
55648;DHT22;45266;48.756;9.246;2022-12-29T05:57:18;4.50;99.90
55648;DHT22;45266;48.756;9.246;2022-12-29T05:58:20;4.50;99.90
55648;DHT22;45266;48.756;9.246;2022-12-29T05:59:22;4.50;99.90
55648;DHT22;45266;48.756;9.246;2022-12-29T06:00:23;4.50;99.90
55648;DHT22;45266;48.756;9.246;2022-12-29T06:01:25;4.50;99.90
55648;DHT22;45266;48.756;9.246;2022-12-29T06:02:27;4.60;99.90
55648;DHT22;45266;48.756;9.246;2022-12-29T06:03:29;4.60;99.90
55648;DHT22;45266;48.756;9.246;2022-12-29T06:04:31;4.60;99.90
55648;DHT22;45266;48.756;9.246;2022-12-29T06:05:33;4.70;99.90
55648;DHT22;45266;48.756;9.246;2022-12-29T06:06:35;4.70;99.90
55648;DHT22;45266;48.756;9.246;2022-12-29T06:07:37;4.70;99.90
55648;DHT22;45266;48.756;9.246;2022-12-29T06:08:38;4.70;99.90
55648;DHT22;45266;48.756;9.246;2022-12-29T06:09:40;4.70;99.90
55648;DHT22;45266;48.756;9.246;2022-12-29T06:10:42;4.70;99.90
55648;DHT22;45266;48.756;9.246;2022-12-29T06:11:44;4.70;99.90
55648;DHT22;45266;48.756;9.246;2022-12-29T06:12:46;4.70;99.90
55648;DHT22;45266;48.756;9.246;2022-12-29T06:13:48;4.80;99.90
55648;DHT22;45266;48.756;9.246;2022-12-29T06:14:50;4.80;99.90
55648;DHT22;45266;48.756;9.246;2022-12-29T06:15:52;4.80;99.90
55648;DHT22;45266;48.756;9.246;2022-12-29T06:16:53;4.90;99.90
55648;DHT22;45266;48.756;9.246;2022-12-29T06:17:55;4.90;99.90
55648;DHT22;45266;48.756;9.246;2022-12-29T06:18:57;4.90;99.90
55648;DHT22;45266;48.756;9.246;2022-12-29T06:19:59;5.00;99.90
55648;DHT22;45266;48.756;9.246;2022-12-29T06:21:01;5.00;99.90
55648;DHT22;45266;48.756;9.246;2022-12-29T06:22:04;5.10;99.90
55648;DHT22;45266;48.756;9.246;2022-12-29T06:23:06;5.10;99.90
55648;DHT22;45266;48.756;9.246;2022-12-29T06:24:08;5.20;99.90
55648;DHT22;45266;48.756;9.246;2022-12-29T06:25:12;5.30;99.90
55648;DHT22;45266;48.756;9.246;2022-12-29T06:26:14;5.40;99.90
55648;DHT22;45266;48.756;9.246;2022-12-29T06:27:16;5.40;99.90
55648;DHT22;45266;48.756;9.246;2022-12-29T06:28:18;5.50;99.90
55648;DHT22;45266;48.756;9.246;2022-12-29T06:29:20;5.50;99.90
55648;DHT22;45266;48.756;9.246;2022-12-29T06:30:22;5.60;99.90
55648;DHT22;45266;48.756;9.246;2022-12-29T06:31:23;5.60;99.90
55648;DHT22;45266;48.756;9.246;2022-12-29T06:32:25;5.70;99.90
55648;DHT22;45266;48.756;9.246;2022-12-29T06:33:27;5.70;99.90
55648;DHT22;45266;48.756;9.246;2022-12-29T06:34:29;5.70;99.90
55648;DHT22;45266;48.756;9.246;2022-12-29T06:35:31;5.70;99.90
55648;DHT22;45266;48.756;9.246;2022-12-29T06:36:32;5.70;99.90
55648;DHT22;45266;48.756;9.246;2022-12-29T06:37:34;5.70;99.90
55648;DHT22;45266;48.756;9.246;2022-12-29T06:38:36;5.70;99.90
55648;DHT22;45266;48.756;9.246;2022-12-29T06:39:38;5.70;99.90
55648;DHT22;45266;48.756;9.246;2022-12-29T06:40:42;5.70;99.90
55648;DHT22;45266;48.756;9.246;2022-12-29T06:41:43;5.70;99.90
55648;DHT22;45266;48.756;9.246;2022-12-29T06:42:45;5.60;99.90
55648;DHT22;45266;48.756;9.246;2022-12-29T06:43:47;5.60;99.90
55648;DHT22;45266;48.756;9.246;2022-12-29T06:44:49;5.60;99.90
55648;DHT22;45266;48.756;9.246;2022-12-29T06:45:51;5.60;99.90
55648;DHT22;45266;48.756;9.246;2022-12-29T06:46:53;5.60;99.90
55648;DHT22;45266;48.756;9.246;2022-12-29T06:47:54;5.60;99.90
55648;DHT22;45266;48.756;9.246;2022-12-29T06:48:56;5.60;99.90
55648;DHT22;45266;48.756;9.246;2022-12-29T06:49:58;5.60;99.90
55648;DHT22;45266;48.756;9.246;2022-12-29T06:51:00;5.60;99.90
55648;DHT22;45266;48.756;9.246;2022-12-29T06:52:02;5.60;99.90
55648;DHT22;45266;48.756;9.246;2022-12-29T06:53:13;5.60;99.90
55648;DHT22;45266;48.756;9.246;2022-12-29T06:54:14;5.60;99.90
55648;DHT22;45266;48.756;9.246;2022-12-29T06:55:17;5.60;99.90
55648;DHT22;45266;48.756;9.246;2022-12-29T06:56:18;5.60;99.90
55648;DHT22;45266;48.756;9.246;2022-12-29T06:57:21;5.60;99.90
55648;DHT22;45266;48.756;9.246;2022-12-29T06:58:23;5.60;99.90
55648;DHT22;45266;48.756;9.246;2022-12-29T06:59:25;5.60;99.90
55648;DHT22;45266;48.756;9.246;2022-12-29T07:00:27;5.60;99.90
55648;DHT22;45266;48.756;9.246;2022-12-29T07:01:29;5.50;99.90
55648;DHT22;45266;48.756;9.246;2022-12-29T07:02:31;5.50;99.90
55648;DHT22;45266;48.756;9.246;2022-12-29T07:03:33;5.50;99.90
55648;DHT22;45266;48.756;9.246;2022-12-29T07:04:35;5.50;99.90
55648;DHT22;45266;48.756;9.246;2022-12-29T07:05:36;5.50;99.90
55648;DHT22;45266;48.756;9.246;2022-12-29T07:06:38;5.50;99.90
55648;DHT22;45266;48.756;9.246;2022-12-29T07:07:42;5.50;99.90
55648;DHT22;45266;48.756;9.246;2022-12-29T07:08:43;5.50;99.90
55648;DHT22;45266;48.756;9.246;2022-12-29T07:09:46;5.50;99.90
55648;DHT22;45266;48.756;9.246;2022-12-29T07:10:47;5.50;99.90
55648;DHT22;45266;48.756;9.246;2022-12-29T07:11:49;5.50;99.90
55648;DHT22;45266;48.756;9.246;2022-12-29T07:12:51;5.50;99.90
55648;DHT22;45266;48.756;9.246;2022-12-29T07:13:53;5.40;99.90
55648;DHT22;45266;48.756;9.246;2022-12-29T07:14:55;5.40;99.90
55648;DHT22;45266;48.756;9.246;2022-12-29T07:15:57;5.40;99.90
55648;DHT22;45266;48.756;9.246;2022-12-29T07:16:59;5.40;99.90
55648;DHT22;45266;48.756;9.246;2022-12-29T07:18:00;5.30;99.90
55648;DHT22;45266;48.756;9.246;2022-12-29T07:19:03;5.30;99.90
55648;DHT22;45266;48.756;9.246;2022-12-29T07:20:05;5.30;99.90
55648;DHT22;45266;48.756;9.246;2022-12-29T07:21:07;5.30;99.90
55648;DHT22;45266;48.756;9.246;2022-12-29T07:22:09;5.30;99.90
55648;DHT22;45266;48.756;9.246;2022-12-29T07:23:11;5.20;99.90
55648;DHT22;45266;48.756;9.246;2022-12-29T07:24:13;5.20;99.90
55648;DHT22;45266;48.756;9.246;2022-12-29T07:25:15;5.20;99.90
55648;DHT22;45266;48.756;9.246;2022-12-29T07:26:18;5.20;99.90
55648;DHT22;45266;48.756;9.246;2022-12-29T07:27:20;5.20;99.90
55648;DHT22;45266;48.756;9.246;2022-12-29T07:28:21;5.10;99.90
55648;DHT22;45266;48.756;9.246;2022-12-29T07:29:23;5.10;99.90
55648;DHT22;45266;48.756;9.246;2022-12-29T07:30:25;5.10;99.90
55648;DHT22;45266;48.756;9.246;2022-12-29T07:31:27;5.10;99.90
55648;DHT22;45266;48.756;9.246;2022-12-29T07:32:32;5.10;99.90